Řízení letového provozu České republiky  
Aktualizace dat:  18.01.2018 23:05:15 UTC English version
   METEO Zobrazení stránky:  18.01.2018 23:08:06 UTC  
vysvětlivky
METAR EDDB 182250Z 28016KT 9999 BKN016 02/00 Q0997 TEMPO 29020G30KT=
METAR EDDC 182250Z 27010KT 240V300 9999 -RA BKN009 02/01 Q0999=
METAR EDDE 182250Z 25014KT 9999 FEW040 02/M02 Q1001=
METAR EDDF 182250Z 21008KT 9999 -SHRASN SCT018TCU SCT034 BKN100 04/02 Q1003 NOSIG=
METAR EDDM 182250Z 26013KT 9999 -RA SCT030 BKN080 05/02 Q1004 NOSIG=
METAR EDDN 182250Z 36003KT 290V020 CAVOK 01/M01 Q1003 R28/29//95=
METAR COR EDDP 182250Z 27012KT 9999 BKN035 02/00 Q1000 NOSIG=
METAR EDDT 182250Z 28011KT 260V320 9999 BKN011 02/00 Q0998=
METAR EDQM 181850Z 27019KT 9999 OVC039 02/M04 Q0998=
METAR EPBY 182300Z 25005KT 2600 SN OVC002 00/M00 Q0985 R26/591091 =
METAR EPGD 182300Z 07010KT 9999 -SN BKN006 00/M01 Q0988 R11/290095 =
METAR EPKK 182300Z 24025G35KT 9999 FEW033 05/M02 Q0994 R25/29//95 =
METAR EPKT 182300Z 25029G41KT 9999 FEW042 03/M02 Q0993 =
METAR EPLL 182300Z 23020KT 9999 -RASN BKN005 01/M00 Q0988 =
METAR EPPO 182300Z 29025KT 7000 -SN BKN008 01/00 Q0988 RESN R10/29//95 =
METAR EPRZ 182300Z 20021KT 9999 -SN SCT045 02/M03 Q0994 =
METAR EPWA 182300Z 21010KT 9999 -RA BKN008 02/01 Q0987 R11/650195 TEMPO 4000 RASN=
METAR EPWR 182300Z 29024G34KT 9999 FEW017 OVC027 03/M02 Q0994 R11/29//95 =
METAR LHBP 182300Z 20012KT 9999 -RA FEW011 SCT033 OVC063 05/M01 Q1003 NOSIG=
METAR LHSM 181545Z 19012KT CAVOK 06/M03 Q1008=
METAR LKCV 182200Z 26017KT CAVOK 05/M02 Q0999 NOSIG=
METAR LKKB 182200Z 24012KT 9999 OVC043 04/M03 Q1000 =
METAR LKKU NIL
METAR LKKV 182300Z 25010KT 210V290 9999 BKN028 01/M03 Q1000 R29///////=
METAR LKLN 182200Z AUTO 25008KT 220V300 9999 SCT038 03/M02 Q1002=
METAR LKMT 182300Z 24020KT 9999 FEW046 04/M03 Q0997 NOSIG=
METAR LKNA 182200Z 28022KT CAVOK 03/M03 Q0999=
METAR LKPD 182200Z 26018KT CAVOK 05/M02 Q0998 =
METAR LKPR 182300Z 24013KT 9999 FEW040 02/M03 Q1000 NOSIG=
METAR LKTB 182300Z 28014KT CAVOK 04/M02 Q1000 R27/29//95 NOSIG=
METAR LKVO NIL
METAR LOWI 182250Z AUTO 25006KT 200V280 9999 -DZ FEW042 BKN050 02/01 Q1005=
METAR LOWL 182250Z AUTO 27014KT 9999 -RA FEW014 BKN028 04/02 Q1004=
METAR LOWS 182250Z AUTO 29015G26KT 240V320 8000 RA FEW009 BKN020 05/03 Q1006=
METAR LOWW 182250Z 28012KT 9999 -RA FEW020 BKN046 06/04 Q1003 NOSIG=
METAR LZIB 182300Z 25013KT 9999 -RA FEW014 SCT031 BKN040 08/03 Q1002 R88/CLRD//=
METAR LZKZ 182300Z 24011KT 9999 BKN010 M00/M02 Q1001=
METAR LZPP 182300Z AUTO 16003KT 090V190 9999 BKN100/// OVC120/// 03/M02 Q1002=
METAR LZSL 182300Z 15001KT 0300 R36/1000U FZFG BKN002 M02/M03 Q1001=
METAR LZTT 182300Z 24004KT 7000 -SN FEW010 BKN033 M01/M03 Q0996=
METAR LZZI 182300Z 28006KT 9999 SCT033 BKN043 01/M01 Q0999=
METAR URRP NIL